createdAt,value
2018-12-20T00:04:36.386Z,9.70
2018-12-20T00:09:39.646Z,9.70
2018-12-20T00:14:42.984Z,9.60
2018-12-20T00:19:46.292Z,9.90
2018-12-20T00:24:50.095Z,9.90
2018-12-20T00:29:53.457Z,9.70
2018-12-20T00:34:56.778Z,10.00
2018-12-20T00:40:06.383Z,9.70
2018-12-20T00:45:05.765Z,10.00
2018-12-20T00:50:09.041Z,9.90
2018-12-20T00:55:12.333Z,10.10
2018-12-20T01:00:15.716Z,10.00
2018-12-20T01:05:19.060Z,10.10
2018-12-20T01:10:22.400Z,10.20
2018-12-20T01:15:25.822Z,9.90
2018-12-20T01:20:29.382Z,10.20
2018-12-20T01:25:32.626Z,10.20
2018-12-20T01:30:35.888Z,9.90
2018-12-20T01:35:39.146Z,10.20
2018-12-20T01:40:42.691Z,10.10
2018-12-20T01:45:46.061Z,10.00
2018-12-20T01:50:49.490Z,9.70
2018-12-20T01:55:52.944Z,10.10
2018-12-20T02:00:56.238Z,10.00
2018-12-20T02:05:59.528Z,10.00
2018-12-20T02:11:02.838Z,9.60
2018-12-20T02:16:06.074Z,9.70
2018-12-20T02:21:09.318Z,9.60
2018-12-20T02:26:12.680Z,10.00
2018-12-20T02:31:15.967Z,9.90
2018-12-20T02:36:19.138Z,9.70
2018-12-20T02:41:23.384Z,9.60
2018-12-20T02:46:27.893Z,10.10
2018-12-20T02:51:32.153Z,9.60
2018-12-20T02:56:35.617Z,9.60
2018-12-20T03:01:38.952Z,9.90
2018-12-20T03:06:42.279Z,10.00
2018-12-20T03:11:45.733Z,9.90
2018-12-20T03:16:49.030Z,9.90
2018-12-20T03:21:52.499Z,9.80
2018-12-20T03:26:56.006Z,9.60
2018-12-20T03:31:59.240Z,9.80
2018-12-20T03:37:02.909Z,9.60
2018-12-20T03:42:06.198Z,9.90
2018-12-20T03:47:09.421Z,9.60
2018-12-20T03:52:12.748Z,9.90
2018-12-20T03:57:16.922Z,9.90
2018-12-20T04:02:22.303Z,9.60
2018-12-20T04:07:25.650Z,9.90
2018-12-20T04:12:28.943Z,9.80
2018-12-20T04:17:32.763Z,9.90
2018-12-20T04:22:36.131Z,9.50
2018-12-20T04:27:40.883Z,9.70
2018-12-20T04:32:44.115Z,9.90
2018-12-20T04:37:47.600Z,9.70
2018-12-20T04:42:50.961Z,9.90
2018-12-20T04:47:54.394Z,9.70
2018-12-20T04:52:57.738Z,9.80
2018-12-20T04:58:01.295Z,9.90
2018-12-20T05:03:04.658Z,9.80
2018-12-20T05:08:08.070Z,9.90
2018-12-20T05:13:11.585Z,9.70
2018-12-20T05:18:15.101Z,9.70
2018-12-20T05:23:18.349Z,9.80
2018-12-20T05:28:21.642Z,9.80
2018-12-20T05:33:24.874Z,9.80
2018-12-20T05:38:28.223Z,9.90
2018-12-20T05:43:31.664Z,9.60
2018-12-20T05:48:35.340Z,9.70
2018-12-20T05:53:38.598Z,9.70
2018-12-20T05:58:41.950Z,9.80
2018-12-20T06:03:45.229Z,9.60
2018-12-20T06:08:48.525Z,10.30
2018-12-20T06:13:51.762Z,10.10
2018-12-20T06:18:54.980Z,9.90
2018-12-20T06:23:58.166Z,9.90
2018-12-20T06:29:01.382Z,9.90
2018-12-20T06:34:05.490Z,9.90
2018-12-20T06:39:08.954Z,9.80
2018-12-20T06:44:12.326Z,9.70
2018-12-20T06:49:15.547Z,9.60
2018-12-20T06:54:18.961Z,9.90
2018-12-20T06:59:22.402Z,9.70
2018-12-20T07:04:25.701Z,9.70
2018-12-20T07:09:29.049Z,9.80
2018-12-20T07:14:32.269Z,9.60
2018-12-20T07:19:35.470Z,9.70
2018-12-20T07:24:38.670Z,9.80
2018-12-20T07:29:42.422Z,9.80
2018-12-20T07:34:47.957Z,9.70
2018-12-20T07:39:51.314Z,9.90
2018-12-20T07:44:54.616Z,9.60
2018-12-20T07:49:57.820Z,9.60
2018-12-20T07:55:01.007Z,9.90
2018-12-20T08:00:04.898Z,9.60
2018-12-20T08:05:08.117Z,9.90
2018-12-20T08:10:11.481Z,10.20
2018-12-20T08:15:14.870Z,9.90
2018-12-20T08:20:18.174Z,9.60
2018-12-20T08:25:21.390Z,9.90
2018-12-20T08:30:24.614Z,9.60
2018-12-20T08:35:27.833Z,10.10
2018-12-20T08:40:31.038Z,9.70
2018-12-20T08:45:34.237Z,9.80
2018-12-20T08:50:37.434Z,9.60
2018-12-20T08:55:40.649Z,10.10
2018-12-20T09:00:43.867Z,10.00
2018-12-20T09:05:47.158Z,9.90
2018-12-20T09:10:50.361Z,9.60
2018-12-20T09:15:53.600Z,10.00
2018-12-20T09:20:56.830Z,10.20
2018-12-20T09:26:00.036Z,9.60
2018-12-20T09:31:03.238Z,9.80
2018-12-20T09:36:06.541Z,10.20
2018-12-20T09:41:09.811Z,10.00
2018-12-20T09:46:13.078Z,10.20
2018-12-20T09:51:16.387Z,10.10
2018-12-20T09:56:19.569Z,9.90
2018-12-20T10:01:22.803Z,10.20
2018-12-20T10:06:27.128Z,10.20
2018-12-20T10:11:30.322Z,9.80
2018-12-20T10:16:33.635Z,10.00
2018-12-20T10:21:36.842Z,10.00
2018-12-20T10:26:40.050Z,10.20
2018-12-20T10:31:43.390Z,10.20
2018-12-20T10:36:46.625Z,10.10
2018-12-20T10:41:49.853Z,9.90
2018-12-20T10:46:55.035Z,10.10
2018-12-20T10:51:58.258Z,10.20
2018-12-20T10:57:01.462Z,10.20
2018-12-20T11:02:10.233Z,10.20
2018-12-20T11:07:18.802Z,10.20
2018-12-20T11:12:26.466Z,10.20
2018-12-20T11:17:37.189Z,10.20
2018-12-20T11:22:35.614Z,10.20
2018-12-20T11:27:38.838Z,10.20
2018-12-20T11:32:42.060Z,10.10
2018-12-20T11:37:45.276Z,10.20
2018-12-20T11:42:48.470Z,10.10
2018-12-20T11:47:51.799Z,10.30
2018-12-20T11:52:54.998Z,10.40
2018-12-20T11:57:58.450Z,10.00
2018-12-20T12:03:01.671Z,10.10
2018-12-20T12:08:05.235Z,10.20
2018-12-20T12:13:08.454Z,10.50
2018-12-20T12:18:11.682Z,10.30
2018-12-20T12:23:14.876Z,10.50
2018-12-20T12:28:18.190Z,10.50
2018-12-20T12:33:21.373Z,10.50
2018-12-20T12:38:24.878Z,10.60
2018-12-20T12:43:28.068Z,10.60
2018-12-20T12:48:31.356Z,10.60
2018-12-20T12:53:34.614Z,10.30
2018-12-20T12:58:37.778Z,10.60
2018-12-20T13:03:40.986Z,10.60
2018-12-20T13:08:44.182Z,11.70
2018-12-20T13:13:47.374Z,11.10
2018-12-20T13:18:50.819Z,10.90
2018-12-20T13:23:54.007Z,10.90
2018-12-20T13:28:57.186Z,10.70
2018-12-20T13:34:00.374Z,10.50
2018-12-20T13:39:05.527Z,10.50
2018-12-20T13:44:08.722Z,10.50
2018-12-20T13:49:11.927Z,10.40
2018-12-20T13:54:15.191Z,10.60
2018-12-20T13:59:19.095Z,10.90
2018-12-20T14:04:22.904Z,10.60
2018-12-20T14:09:26.121Z,10.60
2018-12-20T14:14:29.385Z,10.40
2018-12-20T14:19:32.562Z,10.60
2018-12-20T14:24:36.241Z,10.50
2018-12-20T14:29:39.950Z,10.50
2018-12-20T14:34:43.126Z,10.50
2018-12-20T14:39:46.311Z,10.50
2018-12-20T14:44:49.474Z,10.60
2018-12-20T14:49:52.651Z,10.70
2018-12-20T14:54:55.870Z,10.60
2018-12-20T14:59:59.215Z,10.50
2018-12-20T15:05:03.462Z,10.60
2018-12-20T15:10:08.964Z,10.60
2018-12-20T15:15:12.215Z,10.40
2018-12-20T15:20:15.382Z,10.60
2018-12-20T15:25:18.571Z,10.50
2018-12-20T15:30:21.818Z,10.60
2018-12-20T15:35:25.087Z,10.60
2018-12-20T15:40:28.294Z,10.40
2018-12-20T15:45:31.482Z,10.60
2018-12-20T15:50:34.670Z,10.50
2018-12-20T15:55:37.938Z,10.60
2018-12-20T16:00:41.160Z,10.40
2018-12-20T16:05:44.321Z,10.60
2018-12-20T16:10:47.474Z,10.40
2018-12-20T16:15:50.714Z,10.50
2018-12-20T16:20:53.974Z,12.20
2018-12-20T16:25:57.272Z,11.80
2018-12-20T16:31:00.442Z,11.30
2018-12-20T16:36:03.883Z,11.20
2018-12-20T16:41:07.154Z,10.90
2018-12-20T16:46:11.372Z,10.80
2018-12-20T16:51:14.634Z,10.80
2018-12-20T16:56:17.811Z,10.90
2018-12-20T17:01:21.011Z,10.90
2018-12-20T17:06:24.286Z,10.90
2018-12-20T17:11:28.498Z,10.80
2018-12-20T17:16:31.715Z,10.70
2018-12-20T17:21:37.965Z,10.50
2018-12-20T17:26:41.210Z,10.50
2018-12-20T17:31:44.727Z,10.40
2018-12-20T17:36:47.891Z,10.40
2018-12-20T17:41:51.223Z,10.40
2018-12-20T17:46:54.556Z,10.40
2018-12-20T17:51:57.845Z,10.60
2018-12-20T17:57:01.051Z,10.40
2018-12-20T18:02:05.112Z,10.60
2018-12-20T18:07:09.105Z,10.60
2018-12-20T18:12:12.397Z,10.60
2018-12-20T18:17:15.658Z,10.60
2018-12-20T18:22:18.990Z,10.60
2018-12-20T18:27:22.154Z,10.60
2018-12-20T18:32:25.447Z,10.50
2018-12-20T18:37:28.626Z,10.40
2018-12-20T18:42:31.811Z,10.50
2018-12-20T18:47:35.011Z,10.50
2018-12-20T18:52:38.266Z,10.40
2018-12-20T18:57:41.462Z,10.60
2018-12-20T19:02:44.746Z,10.50
2018-12-20T19:07:48.531Z,10.50
2018-12-20T19:12:51.718Z,10.60
2018-12-20T19:17:54.944Z,10.60
2018-12-20T19:22:58.376Z,10.50
2018-12-20T19:28:01.558Z,10.40
2018-12-20T19:33:04.820Z,10.50
2018-12-20T19:38:07.989Z,10.30
2018-12-20T19:43:11.150Z,10.60
2018-12-20T19:48:14.322Z,10.60
2018-12-20T19:53:18.305Z,10.40
2018-12-20T19:58:21.462Z,10.20
2018-12-20T20:03:25.454Z,10.40
2018-12-20T20:08:28.695Z,10.30
2018-12-20T20:13:31.970Z,10.50
2018-12-20T20:18:35.234Z,10.50
2018-12-20T20:23:38.406Z,10.50
2018-12-20T20:28:41.592Z,10.30
2018-12-20T20:33:44.786Z,10.50
2018-12-20T20:38:47.953Z,10.10
2018-12-20T20:43:51.162Z,10.40
2018-12-20T20:48:54.346Z,10.50
2018-12-20T20:53:57.529Z,10.50
2018-12-20T20:59:00.694Z,10.00
2018-12-20T21:04:04.000Z,10.30
2018-12-20T21:09:08.065Z,10.50
2018-12-20T21:14:11.260Z,10.20
2018-12-20T21:19:14.454Z,10.40
2018-12-20T21:24:17.712Z,10.40
2018-12-20T21:29:20.950Z,10.20
2018-12-20T21:34:24.114Z,10.30
2018-12-20T21:39:27.306Z,10.50
2018-12-20T21:44:30.491Z,10.10
2018-12-20T21:49:33.675Z,10.40
2018-12-20T21:54:36.847Z,10.60
2018-12-20T21:59:40.023Z,10.10
2018-12-20T22:04:43.228Z,10.50
2018-12-20T22:09:47.134Z,10.30
2018-12-20T22:14:51.103Z,10.30
2018-12-20T22:19:58.578Z,10.60
2018-12-20T22:24:59.546Z,10.30
2018-12-20T22:30:03.126Z,10.30
2018-12-20T22:35:06.482Z,10.00
2018-12-20T22:40:09.796Z,10.60
2018-12-20T22:45:13.050Z,10.00
2018-12-20T22:50:16.213Z,10.00
2018-12-20T22:55:19.406Z,10.40
2018-12-20T23:00:22.583Z,10.00
2018-12-20T23:05:25.766Z,10.30
2018-12-20T23:10:29.010Z,10.40
2018-12-20T23:15:32.315Z,10.60
2018-12-20T23:20:35.486Z,10.40
2018-12-20T23:25:38.666Z,10.50
2018-12-20T23:30:41.842Z,10.40
2018-12-20T23:35:45.022Z,10.30
2018-12-20T23:40:48.213Z,10.30
2018-12-20T23:45:51.419Z,10.60
2018-12-20T23:50:54.599Z,10.50
2018-12-20T23:55:57.774Z,10.50
